sensor_id;sensor_type;location;lat;lon;timestamp;P1;durP1;ratioP1;P2;durP2;ratioP2
7899;SDS011;3995;50.856;4.404;2023-04-06T00:00:53;11.80;;;8.40;;
7899;SDS011;3995;50.856;4.404;2023-04-06T00:03:20;10.53;;;8.40;;
7899;SDS011;3995;50.856;4.404;2023-04-06T00:05:49;10.43;;;8.40;;
7899;SDS011;3995;50.856;4.404;2023-04-06T00:08:16;12.10;;;7.80;;
7899;SDS011;3995;50.856;4.404;2023-04-06T00:10:43;9.37;;;8.27;;
7899;SDS011;3995;50.856;4.404;2023-04-06T00:13:10;12.17;;;8.63;;
7899;SDS011;3995;50.856;4.404;2023-04-06T00:15:38;8.33;;;7.17;;
7899;SDS011;3995;50.856;4.404;2023-04-06T00:18:05;14.90;;;8.40;;
7899;SDS011;3995;50.856;4.404;2023-04-06T00:20:32;11.13;;;7.87;;
7899;SDS011;3995;50.856;4.404;2023-04-06T00:23:01;13.47;;;8.93;;
7899;SDS011;3995;50.856;4.404;2023-04-06T00:25:28;9.90;;;8.00;;
7899;SDS011;3995;50.856;4.404;2023-04-06T00:27:55;11.10;;;8.30;;
7899;SDS011;3995;50.856;4.404;2023-04-06T00:30:22;13.97;;;9.57;;
7899;SDS011;3995;50.856;4.404;2023-04-06T00:32:50;9.43;;;8.07;;
7899;SDS011;3995;50.856;4.404;2023-04-06T00:35:17;19.13;;;9.10;;
7899;SDS011;3995;50.856;4.404;2023-04-06T00:37:46;14.53;;;8.30;;
7899;SDS011;3995;50.856;4.404;2023-04-06T00:40:15;11.20;;;7.63;;
7899;SDS011;3995;50.856;4.404;2023-04-06T00:42:43;14.53;;;8.30;;
7899;SDS011;3995;50.856;4.404;2023-04-06T00:45:24;12.30;;;8.77;;
7899;SDS011;3995;50.856;4.404;2023-04-06T00:47:51;10.17;;;8.13;;
7899;SDS011;3995;50.856;4.404;2023-04-06T00:50:18;11.53;;;8.17;;
7899;SDS011;3995;50.856;4.404;2023-04-06T00:52:45;22.77;;;10.37;;
7899;SDS011;3995;50.856;4.404;2023-04-06T00:55:13;10.70;;;9.33;;
7899;SDS011;3995;50.856;4.404;2023-04-06T00:57:42;14.43;;;7.80;;
7899;SDS011;3995;50.856;4.404;2023-04-06T01:00:09;13.93;;;8.50;;
7899;SDS011;3995;50.856;4.404;2023-04-06T01:02:37;11.10;;;7.77;;
7899;SDS011;3995;50.856;4.404;2023-04-06T01:05:05;10.83;;;8.60;;
7899;SDS011;3995;50.856;4.404;2023-04-06T01:07:33;9.10;;;7.93;;
7899;SDS011;3995;50.856;4.404;2023-04-06T01:10:01;9.67;;;8.10;;
7899;SDS011;3995;50.856;4.404;2023-04-06T01:12:28;9.00;;;7.63;;
7899;SDS011;3995;50.856;4.404;2023-04-06T01:14:57;12.13;;;9.00;;
7899;SDS011;3995;50.856;4.404;2023-04-06T01:17:25;10.10;;;8.53;;
7899;SDS011;3995;50.856;4.404;2023-04-06T01:19:53;11.63;;;8.60;;
7899;SDS011;3995;50.856;4.404;2023-04-06T01:22:22;12.83;;;9.00;;
7899;SDS011;3995;50.856;4.404;2023-04-06T01:24:51;10.87;;;8.77;;
7899;SDS011;3995;50.856;4.404;2023-04-06T01:27:18;10.37;;;8.17;;
7899;SDS011;3995;50.856;4.404;2023-04-06T01:29:45;10.60;;;8.53;;
7899;SDS011;3995;50.856;4.404;2023-04-06T01:32:13;10.53;;;8.27;;
7899;SDS011;3995;50.856;4.404;2023-04-06T01:34:40;14.40;;;9.17;;
7899;SDS011;3995;50.856;4.404;2023-04-06T01:37:07;11.13;;;9.00;;
7899;SDS011;3995;50.856;4.404;2023-04-06T01:39:36;10.60;;;8.13;;
7899;SDS011;3995;50.856;4.404;2023-04-06T01:42:04;11.87;;;9.20;;
7899;SDS011;3995;50.856;4.404;2023-04-06T01:44:31;10.67;;;8.67;;
7899;SDS011;3995;50.856;4.404;2023-04-06T01:46:58;17.30;;;9.27;;
7899;SDS011;3995;50.856;4.404;2023-04-06T01:49:25;11.53;;;8.57;;
7899;SDS011;3995;50.856;4.404;2023-04-06T01:51:52;9.57;;;8.20;;
7899;SDS011;3995;50.856;4.404;2023-04-06T01:54:20;11.00;;;8.60;;
7899;SDS011;3995;50.856;4.404;2023-04-06T01:56:48;14.10;;;8.70;;
7899;SDS011;3995;50.856;4.404;2023-04-06T01:59:17;11.13;;;8.60;;
7899;SDS011;3995;50.856;4.404;2023-04-06T02:01:44;12.87;;;9.00;;
7899;SDS011;3995;50.856;4.404;2023-04-06T02:04:11;9.73;;;8.57;;
7899;SDS011;3995;50.856;4.404;2023-04-06T02:06:39;12.27;;;8.63;;
7899;SDS011;3995;50.856;4.404;2023-04-06T02:09:07;12.27;;;9.17;;
7899;SDS011;3995;50.856;4.404;2023-04-06T02:11:34;13.33;;;9.13;;
7899;SDS011;3995;50.856;4.404;2023-04-06T02:14:03;10.00;;;8.60;;
7899;SDS011;3995;50.856;4.404;2023-04-06T02:16:30;10.77;;;8.70;;
7899;SDS011;3995;50.856;4.404;2023-04-06T02:18:57;10.57;;;8.33;;
7899;SDS011;3995;50.856;4.404;2023-04-06T02:21:24;12.37;;;8.70;;
7899;SDS011;3995;50.856;4.404;2023-04-06T02:23:51;18.43;;;10.23;;
7899;SDS011;3995;50.856;4.404;2023-04-06T02:26:18;11.47;;;9.10;;
7899;SDS011;3995;50.856;4.404;2023-04-06T02:28:46;12.90;;;8.77;;
7899;SDS011;3995;50.856;4.404;2023-04-06T02:31:14;11.00;;;9.03;;
7899;SDS011;3995;50.856;4.404;2023-04-06T02:33:42;12.83;;;8.87;;
7899;SDS011;3995;50.856;4.404;2023-04-06T02:36:09;11.77;;;8.63;;
7899;SDS011;3995;50.856;4.404;2023-04-06T02:38:35;11.47;;;9.50;;
7899;SDS011;3995;50.856;4.404;2023-04-06T02:41:03;12.93;;;9.27;;
7899;SDS011;3995;50.856;4.404;2023-04-06T02:43:30;11.33;;;9.00;;
7899;SDS011;3995;50.856;4.404;2023-04-06T02:45:57;10.00;;;8.87;;
7899;SDS011;3995;50.856;4.404;2023-04-06T02:48:26;10.53;;;8.80;;
7899;SDS011;3995;50.856;4.404;2023-04-06T02:50:53;9.87;;;8.40;;
7899;SDS011;3995;50.856;4.404;2023-04-06T02:53:20;11.57;;;9.10;;
7899;SDS011;3995;50.856;4.404;2023-04-06T02:55:48;10.43;;;9.30;;
7899;SDS011;3995;50.856;4.404;2023-04-06T02:58:15;14.13;;;8.87;;
7899;SDS011;3995;50.856;4.404;2023-04-06T03:00:42;16.20;;;9.97;;
7899;SDS011;3995;50.856;4.404;2023-04-06T03:03:10;26.97;;;9.93;;
7899;SDS011;3995;50.856;4.404;2023-04-06T03:05:38;12.97;;;9.33;;
7899;SDS011;3995;50.856;4.404;2023-04-06T03:08:05;11.67;;;9.00;;
7899;SDS011;3995;50.856;4.404;2023-04-06T03:10:32;10.53;;;9.43;;
7899;SDS011;3995;50.856;4.404;2023-04-06T03:13:00;11.53;;;9.80;;
7899;SDS011;3995;50.856;4.404;2023-04-06T03:15:27;14.53;;;10.43;;
7899;SDS011;3995;50.856;4.404;2023-04-06T03:17:54;22.87;;;10.10;;
7899;SDS011;3995;50.856;4.404;2023-04-06T03:20:21;22.17;;;9.50;;
7899;SDS011;3995;50.856;4.404;2023-04-06T03:22:50;11.30;;;9.30;;
7899;SDS011;3995;50.856;4.404;2023-04-06T03:25:17;12.23;;;9.77;;
7899;SDS011;3995;50.856;4.404;2023-04-06T03:27:45;12.97;;;9.80;;
7899;SDS011;3995;50.856;4.404;2023-04-06T03:30:12;15.20;;;9.47;;
7899;SDS011;3995;50.856;4.404;2023-04-06T03:32:41;13.93;;;9.13;;
7899;SDS011;3995;50.856;4.404;2023-04-06T03:35:08;16.77;;;9.40;;
7899;SDS011;3995;50.856;4.404;2023-04-06T03:37:36;15.43;;;10.30;;
7899;SDS011;3995;50.856;4.404;2023-04-06T03:40:06;19.20;;;11.53;;
7899;SDS011;3995;50.856;4.404;2023-04-06T03:42:34;15.83;;;8.80;;
7899;SDS011;3995;50.856;4.404;2023-04-06T03:45:01;16.90;;;9.90;;
7899;SDS011;3995;50.856;4.404;2023-04-06T03:47:29;14.83;;;10.07;;
7899;SDS011;3995;50.856;4.404;2023-04-06T03:49:56;14.43;;;9.40;;
7899;SDS011;3995;50.856;4.404;2023-04-06T03:52:23;16.87;;;9.47;;
7899;SDS011;3995;50.856;4.404;2023-04-06T03:54:51;11.27;;;10.00;;
7899;SDS011;3995;50.856;4.404;2023-04-06T03:57:20;14.93;;;9.80;;
7899;SDS011;3995;50.856;4.404;2023-04-06T03:59:47;20.30;;;10.13;;
7899;SDS011;3995;50.856;4.404;2023-04-06T04:02:14;14.87;;;10.20;;
7899;SDS011;3995;50.856;4.404;2023-04-06T04:04:42;17.90;;;9.40;;
7899;SDS011;3995;50.856;4.404;2023-04-06T04:07:09;14.40;;;9.23;;
7899;SDS011;3995;50.856;4.404;2023-04-06T04:09:36;18.47;;;9.47;;
7899;SDS011;3995;50.856;4.404;2023-04-06T04:12:04;11.17;;;9.40;;
7899;SDS011;3995;50.856;4.404;2023-04-06T04:14:33;10.90;;;9.70;;
7899;SDS011;3995;50.856;4.404;2023-04-06T04:17:00;11.37;;;9.67;;
7899;SDS011;3995;50.856;4.404;2023-04-06T04:19:30;10.30;;;9.10;;
7899;SDS011;3995;50.856;4.404;2023-04-06T04:21:58;17.03;;;9.83;;
7899;SDS011;3995;50.856;4.404;2023-04-06T04:24:25;20.57;;;10.07;;
7899;SDS011;3995;50.856;4.404;2023-04-06T04:26:52;21.63;;;10.87;;
7899;SDS011;3995;50.856;4.404;2023-04-06T04:29:20;10.37;;;9.20;;
7899;SDS011;3995;50.856;4.404;2023-04-06T04:31:49;10.57;;;9.20;;
7899;SDS011;3995;50.856;4.404;2023-04-06T04:34:17;11.43;;;10.03;;
7899;SDS011;3995;50.856;4.404;2023-04-06T04:36:45;12.57;;;9.87;;
7899;SDS011;3995;50.856;4.404;2023-04-06T04:39:13;14.87;;;10.50;;
7899;SDS011;3995;50.856;4.404;2023-04-06T04:41:40;13.20;;;9.67;;
7899;SDS011;3995;50.856;4.404;2023-04-06T04:44:07;16.20;;;10.10;;
7899;SDS011;3995;50.856;4.404;2023-04-06T04:46:35;14.93;;;9.40;;
7899;SDS011;3995;50.856;4.404;2023-04-06T04:49:03;12.10;;;10.10;;
7899;SDS011;3995;50.856;4.404;2023-04-06T04:51:30;11.67;;;9.60;;
7899;SDS011;3995;50.856;4.404;2023-04-06T04:53:58;20.53;;;10.43;;
7899;SDS011;3995;50.856;4.404;2023-04-06T04:56:25;13.37;;;9.70;;
7899;SDS011;3995;50.856;4.404;2023-04-06T04:58:53;13.53;;;10.30;;
7899;SDS011;3995;50.856;4.404;2023-04-06T05:01:20;17.73;;;10.43;;
7899;SDS011;3995;50.856;4.404;2023-04-06T05:03:47;11.40;;;9.63;;
7899;SDS011;3995;50.856;4.404;2023-04-06T05:06:16;22.73;;;10.57;;
7899;SDS011;3995;50.856;4.404;2023-04-06T05:08:44;19.13;;;9.70;;
7899;SDS011;3995;50.856;4.404;2023-04-06T05:11:11;14.50;;;10.53;;
7899;SDS011;3995;50.856;4.404;2023-04-06T05:13:38;13.37;;;10.63;;
7899;SDS011;3995;50.856;4.404;2023-04-06T05:16:06;13.67;;;10.80;;
7899;SDS011;3995;50.856;4.404;2023-04-06T05:18:33;12.70;;;10.17;;
7899;SDS011;3995;50.856;4.404;2023-04-06T05:21:00;21.00;;;10.70;;
7899;SDS011;3995;50.856;4.404;2023-04-06T05:23:29;13.63;;;9.47;;
7899;SDS011;3995;50.856;4.404;2023-04-06T05:25:57;16.83;;;11.50;;
7899;SDS011;3995;50.856;4.404;2023-04-06T05:28:24;12.37;;;9.77;;
7899;SDS011;3995;50.856;4.404;2023-04-06T05:30:51;13.53;;;10.37;;
7899;SDS011;3995;50.856;4.404;2023-04-06T05:33:19;15.03;;;10.60;;
7899;SDS011;3995;50.856;4.404;2023-04-06T05:35:46;16.33;;;11.03;;
7899;SDS011;3995;50.856;4.404;2023-04-06T05:38:17;14.77;;;10.10;;
7899;SDS011;3995;50.856;4.404;2023-04-06T05:40:46;15.50;;;10.77;;
7899;SDS011;3995;50.856;4.404;2023-04-06T05:43:13;49.07;;;12.27;;
7899;SDS011;3995;50.856;4.404;2023-04-06T05:45:40;18.50;;;12.73;;
7899;SDS011;3995;50.856;4.404;2023-04-06T05:48:10;15.37;;;10.67;;
7899;SDS011;3995;50.856;4.404;2023-04-06T05:50:37;13.70;;;10.93;;
7899;SDS011;3995;50.856;4.404;2023-04-06T05:53:04;17.87;;;11.07;;
7899;SDS011;3995;50.856;4.404;2023-04-06T05:55:31;13.43;;;10.73;;
7899;SDS011;3995;50.856;4.404;2023-04-06T05:58:00;15.17;;;11.60;;
7899;SDS011;3995;50.856;4.404;2023-04-06T06:00:27;15.43;;;11.30;;
7899;SDS011;3995;50.856;4.404;2023-04-06T06:02:57;21.43;;;11.20;;
7899;SDS011;3995;50.856;4.404;2023-04-06T06:05:25;14.17;;;11.07;;
7899;SDS011;3995;50.856;4.404;2023-04-06T06:07:52;19.60;;;12.20;;
7899;SDS011;3995;50.856;4.404;2023-04-06T06:10:19;15.43;;;11.37;;
7899;SDS011;3995;50.856;4.404;2023-04-06T06:12:46;17.77;;;11.53;;
7899;SDS011;3995;50.856;4.404;2023-04-06T06:15:15;22.33;;;12.07;;
7899;SDS011;3995;50.856;4.404;2023-04-06T06:17:43;13.90;;;11.47;;
7899;SDS011;3995;50.856;4.404;2023-04-06T06:20:10;21.03;;;11.20;;
7899;SDS011;3995;50.856;4.404;2023-04-06T06:22:38;14.27;;;10.70;;
7899;SDS011;3995;50.856;4.404;2023-04-06T06:25:05;13.03;;;10.20;;
7899;SDS011;3995;50.856;4.404;2023-04-06T06:27:34;16.20;;;10.30;;
7899;SDS011;3995;50.856;4.404;2023-04-06T06:30:08;18.23;;;11.40;;
7899;SDS011;3995;50.856;4.404;2023-04-06T06:32:37;21.63;;;12.00;;
7899;SDS011;3995;50.856;4.404;2023-04-06T06:35:04;16.00;;;10.20;;
7899;SDS011;3995;50.856;4.404;2023-04-06T06:37:32;19.53;;;10.40;;
7899;SDS011;3995;50.856;4.404;2023-04-06T06:39:59;16.73;;;10.50;;
7899;SDS011;3995;50.856;4.404;2023-04-06T06:42:27;11.47;;;10.03;;
7899;SDS011;3995;50.856;4.404;2023-04-06T06:44:54;18.70;;;10.33;;
7899;SDS011;3995;50.856;4.404;2023-04-06T06:47:21;15.53;;;10.17;;
7899;SDS011;3995;50.856;4.404;2023-04-06T06:49:50;11.90;;;9.67;;
7899;SDS011;3995;50.856;4.404;2023-04-06T06:52:17;13.27;;;9.93;;
7899;SDS011;3995;50.856;4.404;2023-04-06T06:54:45;12.57;;;9.37;;
7899;SDS011;3995;50.856;4.404;2023-04-06T06:57:12;12.60;;;9.50;;
7899;SDS011;3995;50.856;4.404;2023-04-06T06:59:39;10.80;;;9.43;;
7899;SDS011;3995;50.856;4.404;2023-04-06T07:02:06;17.70;;;10.67;;
7899;SDS011;3995;50.856;4.404;2023-04-06T07:04:33;16.50;;;9.60;;
7899;SDS011;3995;50.856;4.404;2023-04-06T07:07:02;14.30;;;9.70;;
7899;SDS011;3995;50.856;4.404;2023-04-06T07:09:30;17.00;;;11.20;;
7899;SDS011;3995;50.856;4.404;2023-04-06T07:11:58;20.30;;;10.47;;
7899;SDS011;3995;50.856;4.404;2023-04-06T07:14:27;11.37;;;10.07;;
7899;SDS011;3995;50.856;4.404;2023-04-06T07:16:54;11.40;;;9.30;;
7899;SDS011;3995;50.856;4.404;2023-04-06T07:19:22;13.60;;;9.97;;
7899;SDS011;3995;50.856;4.404;2023-04-06T07:21:49;13.27;;;10.33;;
7899;SDS011;3995;50.856;4.404;2023-04-06T07:24:18;13.43;;;9.70;;
7899;SDS011;3995;50.856;4.404;2023-04-06T07:26:46;18.00;;;9.63;;
7899;SDS011;3995;50.856;4.404;2023-04-06T07:29:13;14.37;;;9.70;;
7899;SDS011;3995;50.856;4.404;2023-04-06T07:31:41;11.03;;;9.20;;
7899;SDS011;3995;50.856;4.404;2023-04-06T07:34:08;9.47;;;7.97;;
7899;SDS011;3995;50.856;4.404;2023-04-06T07:36:35;11.57;;;7.63;;
7899;SDS011;3995;50.856;4.404;2023-04-06T07:39:03;26.90;;;8.13;;
7899;SDS011;3995;50.856;4.404;2023-04-06T07:41:32;12.30;;;8.97;;
7899;SDS011;3995;50.856;4.404;2023-04-06T07:43:59;14.20;;;6.77;;
7899;SDS011;3995;50.856;4.404;2023-04-06T07:46:27;12.50;;;7.40;;
7899;SDS011;3995;50.856;4.404;2023-04-06T07:48:55;11.13;;;7.17;;
7899;SDS011;3995;50.856;4.404;2023-04-06T07:51:23;10.37;;;6.93;;
7899;SDS011;3995;50.856;4.404;2023-04-06T07:53:52;10.53;;;7.40;;
7899;SDS011;3995;50.856;4.404;2023-04-06T07:56:20;15.73;;;6.70;;
7899;SDS011;3995;50.856;4.404;2023-04-06T07:58:49;8.23;;;6.33;;
7899;SDS011;3995;50.856;4.404;2023-04-06T08:01:17;6.47;;;5.87;;
7899;SDS011;3995;50.856;4.404;2023-04-06T08:03:44;16.77;;;7.27;;
7899;SDS011;3995;50.856;4.404;2023-04-06T08:06:12;7.90;;;6.77;;
7899;SDS011;3995;50.856;4.404;2023-04-06T08:08:39;7.17;;;6.40;;
7899;SDS011;3995;50.856;4.404;2023-04-06T08:11:07;10.57;;;7.10;;
7899;SDS011;3995;50.856;4.404;2023-04-06T08:13:35;9.47;;;7.40;;
7899;SDS011;3995;50.856;4.404;2023-04-06T08:16:04;8.07;;;6.33;;
7899;SDS011;3995;50.856;4.404;2023-04-06T08:18:32;8.93;;;6.67;;
7899;SDS011;3995;50.856;4.404;2023-04-06T08:21:00;9.73;;;6.70;;
7899;SDS011;3995;50.856;4.404;2023-04-06T08:23:27;9.40;;;6.10;;
7899;SDS011;3995;50.856;4.404;2023-04-06T08:25:54;7.60;;;6.10;;
7899;SDS011;3995;50.856;4.404;2023-04-06T08:28:22;10.70;;;6.30;;
7899;SDS011;3995;50.856;4.404;2023-04-06T08:30:49;6.77;;;6.00;;
7899;SDS011;3995;50.856;4.404;2023-04-06T08:33:18;8.37;;;6.00;;
7899;SDS011;3995;50.856;4.404;2023-04-06T08:35:45;9.90;;;6.77;;
7899;SDS011;3995;50.856;4.404;2023-04-06T08:38:13;9.17;;;6.10;;
7899;SDS011;3995;50.856;4.404;2023-04-06T08:40:40;9.60;;;6.47;;
7899;SDS011;3995;50.856;4.404;2023-04-06T08:43:10;7.40;;;6.40;;
7899;SDS011;3995;50.856;4.404;2023-04-06T08:45:41;8.70;;;6.50;;
7899;SDS011;3995;50.856;4.404;2023-04-06T08:48:09;10.73;;;6.70;;
7899;SDS011;3995;50.856;4.404;2023-04-06T08:50:39;9.17;;;6.80;;
7899;SDS011;3995;50.856;4.404;2023-04-06T08:53:07;13.03;;;7.10;;
7899;SDS011;3995;50.856;4.404;2023-04-06T08:55:34;10.50;;;6.93;;
7899;SDS011;3995;50.856;4.404;2023-04-06T08:58:02;11.07;;;7.10;;
7899;SDS011;3995;50.856;4.404;2023-04-06T09:00:32;9.10;;;6.77;;
7899;SDS011;3995;50.856;4.404;2023-04-06T09:03:03;8.77;;;6.97;;
7899;SDS011;3995;50.856;4.404;2023-04-06T09:05:33;9.50;;;7.07;;
7899;SDS011;3995;50.856;4.404;2023-04-06T09:08:02;10.53;;;6.70;;
7899;SDS011;3995;50.856;4.404;2023-04-06T09:10:29;8.33;;;6.40;;
7899;SDS011;3995;50.856;4.404;2023-04-06T09:13:02;12.80;;;7.73;;
7899;SDS011;3995;50.856;4.404;2023-04-06T09:15:30;7.00;;;6.30;;
7899;SDS011;3995;50.856;4.404;2023-04-06T09:17:58;11.00;;;6.70;;
7899;SDS011;3995;50.856;4.404;2023-04-06T09:20:25;7.33;;;6.10;;
7899;SDS011;3995;50.856;4.404;2023-04-06T09:22:53;8.07;;;6.43;;
7899;SDS011;3995;50.856;4.404;2023-04-06T09:25:23;11.03;;;7.20;;
7899;SDS011;3995;50.856;4.404;2023-04-06T09:27:58;9.73;;;7.03;;
7899;SDS011;3995;50.856;4.404;2023-04-06T09:30:26;9.60;;;6.53;;
7899;SDS011;3995;50.856;4.404;2023-04-06T09:32:54;7.93;;;6.27;;
7899;SDS011;3995;50.856;4.404;2023-04-06T09:35:23;10.60;;;6.57;;
7899;SDS011;3995;50.856;4.404;2023-04-06T09:37:51;6.30;;;5.70;;
7899;SDS011;3995;50.856;4.404;2023-04-06T09:40:20;7.17;;;6.13;;
7899;SDS011;3995;50.856;4.404;2023-04-06T09:42:49;6.83;;;5.87;;
7899;SDS011;3995;50.856;4.404;2023-04-06T09:45:19;11.90;;;7.77;;
7899;SDS011;3995;50.856;4.404;2023-04-06T09:47:46;5.90;;;5.30;;
7899;SDS011;3995;50.856;4.404;2023-04-06T09:50:15;6.60;;;5.80;;
7899;SDS011;3995;50.856;4.404;2023-04-06T09:52:44;11.43;;;6.90;;
7899;SDS011;3995;50.856;4.404;2023-04-06T09:55:17;9.57;;;6.93;;
7899;SDS011;3995;50.856;4.404;2023-04-06T09:57:52;8.40;;;6.37;;
7899;SDS011;3995;50.856;4.404;2023-04-06T10:00:24;7.23;;;5.60;;
7899;SDS011;3995;50.856;4.404;2023-04-06T10:02:56;6.50;;;5.80;;
7899;SDS011;3995;50.856;4.404;2023-04-06T10:05:27;6.80;;;5.60;;
7899;SDS011;3995;50.856;4.404;2023-04-06T10:08:01;8.40;;;6.53;;
7899;SDS011;3995;50.856;4.404;2023-04-06T10:10:32;7.77;;;5.73;;
7899;SDS011;3995;50.856;4.404;2023-04-06T10:13:02;8.27;;;6.77;;
7899;SDS011;3995;50.856;4.404;2023-04-06T10:15:30;9.50;;;6.97;;
7899;SDS011;3995;50.856;4.404;2023-04-06T10:17:57;8.40;;;6.37;;
7899;SDS011;3995;50.856;4.404;2023-04-06T10:20:27;9.63;;;5.40;;
7899;SDS011;3995;50.856;4.404;2023-04-06T10:23:02;6.67;;;5.87;;
7899;SDS011;3995;50.856;4.404;2023-04-06T10:25:35;7.40;;;6.53;;
7899;SDS011;3995;50.856;4.404;2023-04-06T10:28:06;8.33;;;7.13;;
7899;SDS011;3995;50.856;4.404;2023-04-06T10:30:34;11.40;;;6.43;;
7899;SDS011;3995;50.856;4.404;2023-04-06T10:33:12;8.93;;;7.23;;
7899;SDS011;3995;50.856;4.404;2023-04-06T10:35:40;8.33;;;6.53;;
7899;SDS011;3995;50.856;4.404;2023-04-06T10:38:08;6.90;;;6.20;;
7899;SDS011;3995;50.856;4.404;2023-04-06T10:40:36;8.60;;;7.13;;
7899;SDS011;3995;50.856;4.404;2023-04-06T10:43:10;8.13;;;6.30;;
7899;SDS011;3995;50.856;4.404;2023-04-06T10:45:39;6.67;;;5.97;;
7899;SDS011;3995;50.856;4.404;2023-04-06T10:48:14;9.70;;;6.80;;
7899;SDS011;3995;50.856;4.404;2023-04-06T10:50:42;7.90;;;6.53;;
7899;SDS011;3995;50.856;4.404;2023-04-06T10:53:10;6.93;;;6.00;;
7899;SDS011;3995;50.856;4.404;2023-04-06T10:55:38;9.10;;;7.20;;
7899;SDS011;3995;50.856;4.404;2023-04-06T10:58:06;7.93;;;7.13;;
7899;SDS011;3995;50.856;4.404;2023-04-06T11:00:34;7.63;;;6.33;;
7899;SDS011;3995;50.856;4.404;2023-04-06T11:03:10;10.60;;;7.40;;
7899;SDS011;3995;50.856;4.404;2023-04-06T11:05:37;8.17;;;7.20;;
7899;SDS011;3995;50.856;4.404;2023-04-06T11:08:05;10.07;;;6.60;;
7899;SDS011;3995;50.856;4.404;2023-04-06T11:10:33;8.10;;;6.13;;
7899;SDS011;3995;50.856;4.404;2023-04-06T11:13:00;7.03;;;6.40;;
7899;SDS011;3995;50.856;4.404;2023-04-06T11:15:34;8.10;;;7.30;;
7899;SDS011;3995;50.856;4.404;2023-04-06T11:18:03;8.10;;;7.30;;
7899;SDS011;3995;50.856;4.404;2023-04-06T11:20:30;8.03;;;7.10;;
7899;SDS011;3995;50.856;4.404;2023-04-06T11:22:57;14.53;;;6.77;;
7899;SDS011;3995;50.856;4.404;2023-04-06T11:25:25;15.23;;;7.50;;
7899;SDS011;3995;50.856;4.404;2023-04-06T11:27:56;7.60;;;6.80;;
7899;SDS011;3995;50.856;4.404;2023-04-06T11:30:24;10.63;;;7.30;;
7899;SDS011;3995;50.856;4.404;2023-04-06T11:32:59;7.77;;;6.60;;
7899;SDS011;3995;50.856;4.404;2023-04-06T11:35:27;10.27;;;6.33;;
7899;SDS011;3995;50.856;4.404;2023-04-06T11:37:59;9.63;;;7.37;;
7899;SDS011;3995;50.856;4.404;2023-04-06T11:40:29;7.43;;;6.73;;
7899;SDS011;3995;50.856;4.404;2023-04-06T11:42:58;7.37;;;6.67;;
7899;SDS011;3995;50.856;4.404;2023-04-06T11:45:25;10.23;;;7.27;;
7899;SDS011;3995;50.856;4.404;2023-04-06T11:47:57;13.50;;;6.70;;
7899;SDS011;3995;50.856;4.404;2023-04-06T11:50:31;10.50;;;7.10;;
7899;SDS011;3995;50.856;4.404;2023-04-06T11:53:00;7.77;;;6.90;;
7899;SDS011;3995;50.856;4.404;2023-04-06T11:55:28;8.33;;;6.60;;
7899;SDS011;3995;50.856;4.404;2023-04-06T11:57:55;7.33;;;6.63;;
7899;SDS011;3995;50.856;4.404;2023-04-06T12:00:22;8.67;;;7.70;;
7899;SDS011;3995;50.856;4.404;2023-04-06T12:02:50;9.07;;;6.37;;
7899;SDS011;3995;50.856;4.404;2023-04-06T12:05:19;9.27;;;7.30;;
7899;SDS011;3995;50.856;4.404;2023-04-06T12:07:46;8.40;;;7.60;;
7899;SDS011;3995;50.856;4.404;2023-04-06T12:10:14;8.33;;;7.07;;
7899;SDS011;3995;50.856;4.404;2023-04-06T12:12:42;7.25;;;6.50;;
7899;SDS011;3995;50.856;4.404;2023-04-06T12:15:10;9.23;;;6.97;;
7899;SDS011;3995;50.856;4.404;2023-04-06T12:17:37;7.47;;;6.57;;
7899;SDS011;3995;50.856;4.404;2023-04-06T12:20:04;7.57;;;6.77;;
7899;SDS011;3995;50.856;4.404;2023-04-06T12:22:34;12.37;;;7.30;;
7899;SDS011;3995;50.856;4.404;2023-04-06T12:25:01;7.03;;;6.37;;
7899;SDS011;3995;50.856;4.404;2023-04-06T12:27:28;7.70;;;6.90;;
7899;SDS011;3995;50.856;4.404;2023-04-06T12:29:55;8.17;;;6.70;;
7899;SDS011;3995;50.856;4.404;2023-04-06T12:32:23;10.10;;;6.77;;
7899;SDS011;3995;50.856;4.404;2023-04-06T12:34:51;8.70;;;6.80;;
7899;SDS011;3995;50.856;4.404;2023-04-06T12:37:18;9.37;;;7.37;;
7899;SDS011;3995;50.856;4.404;2023-04-06T12:39:47;7.63;;;6.87;;
7899;SDS011;3995;50.856;4.404;2023-04-06T12:42:14;8.87;;;7.73;;
7899;SDS011;3995;50.856;4.404;2023-04-06T12:44:42;9.40;;;6.97;;
7899;SDS011;3995;50.856;4.404;2023-04-06T12:47:09;9.13;;;6.80;;
7899;SDS011;3995;50.856;4.404;2023-04-06T12:49:36;6.43;;;5.83;;
7899;SDS011;3995;50.856;4.404;2023-04-06T12:52:04;7.07;;;6.37;;
7899;SDS011;3995;50.856;4.404;2023-04-06T12:54:31;14.33;;;6.63;;
7899;SDS011;3995;50.856;4.404;2023-04-06T12:57:00;7.83;;;6.53;;
7899;SDS011;3995;50.856;4.404;2023-04-06T12:59:27;9.43;;;7.33;;
7899;SDS011;3995;50.856;4.404;2023-04-06T13:01:59;10.13;;;6.13;;
7899;SDS011;3995;50.856;4.404;2023-04-06T13:04:27;7.37;;;6.37;;
7899;SDS011;3995;50.856;4.404;2023-04-06T13:06:54;7.00;;;6.30;;
7899;SDS011;3995;50.856;4.404;2023-04-06T13:09:21;7.27;;;6.50;;
7899;SDS011;3995;50.856;4.404;2023-04-06T13:11:48;7.47;;;6.67;;
7899;SDS011;3995;50.856;4.404;2023-04-06T13:14:17;7.70;;;6.90;;
7899;SDS011;3995;50.856;4.404;2023-04-06T13:16:44;8.83;;;7.10;;
7899;SDS011;3995;50.856;4.404;2023-04-06T13:19:12;9.57;;;7.43;;
7899;SDS011;3995;50.856;4.404;2023-04-06T13:21:39;8.67;;;7.40;;
7899;SDS011;3995;50.856;4.404;2023-04-06T13:24:07;7.50;;;6.67;;
7899;SDS011;3995;50.856;4.404;2023-04-06T13:26:34;8.80;;;7.07;;
7899;SDS011;3995;50.856;4.404;2023-04-06T13:29:02;7.67;;;6.93;;
7899;SDS011;3995;50.856;4.404;2023-04-06T13:31:31;9.70;;;6.70;;
7899;SDS011;3995;50.856;4.404;2023-04-06T13:33:58;12.03;;;8.27;;
7899;SDS011;3995;50.856;4.404;2023-04-06T13:36:26;7.83;;;7.07;;
7899;SDS011;3995;50.856;4.404;2023-04-06T13:38:53;9.90;;;7.60;;
7899;SDS011;3995;50.856;4.404;2023-04-06T13:41:21;7.33;;;6.20;;
7899;SDS011;3995;50.856;4.404;2023-04-06T13:43:51;7.80;;;7.00;;
7899;SDS011;3995;50.856;4.404;2023-04-06T13:46:18;8.43;;;7.60;;
7899;SDS011;3995;50.856;4.404;2023-04-06T13:48:47;7.50;;;6.80;;
7899;SDS011;3995;50.856;4.404;2023-04-06T13:51:14;7.50;;;6.80;;
7899;SDS011;3995;50.856;4.404;2023-04-06T13:53:42;9.20;;;8.10;;
7899;SDS011;3995;50.856;4.404;2023-04-06T13:56:09;7.47;;;6.70;;
7899;SDS011;3995;50.856;4.404;2023-04-06T13:58:36;9.57;;;6.60;;
7899;SDS011;3995;50.856;4.404;2023-04-06T14:01:03;8.50;;;7.20;;
7899;SDS011;3995;50.856;4.404;2023-04-06T14:03:32;9.40;;;7.47;;
7899;SDS011;3995;50.856;4.404;2023-04-06T14:06:01;9.50;;;7.93;;
7899;SDS011;3995;50.856;4.404;2023-04-06T14:08:35;8.53;;;7.63;;
7899;SDS011;3995;50.856;4.404;2023-04-06T14:11:02;7.63;;;6.90;;
7899;SDS011;3995;50.856;4.404;2023-04-06T14:13:30;12.13;;;7.97;;
7899;SDS011;3995;50.856;4.404;2023-04-06T14:15:57;8.57;;;7.27;;
7899;SDS011;3995;50.856;4.404;2023-04-06T14:18:24;7.80;;;7.00;;
7899;SDS011;3995;50.856;4.404;2023-04-06T14:20:56;7.47;;;6.77;;
7899;SDS011;3995;50.856;4.404;2023-04-06T14:23:25;8.63;;;7.17;;
7899;SDS011;3995;50.856;4.404;2023-04-06T14:26:00;7.90;;;7.10;;
7899;SDS011;3995;50.856;4.404;2023-04-06T14:28:29;12.60;;;7.47;;
7899;SDS011;3995;50.856;4.404;2023-04-06T14:30:56;8.93;;;6.50;;
7899;SDS011;3995;50.856;4.404;2023-04-06T14:33:25;8.47;;;6.50;;
7899;SDS011;3995;50.856;4.404;2023-04-06T14:35:52;7.40;;;6.70;;
7899;SDS011;3995;50.856;4.404;2023-04-06T14:38:19;7.50;;;6.80;;
7899;SDS011;3995;50.856;4.404;2023-04-06T14:40:48;9.07;;;6.80;;
7899;SDS011;3995;50.856;4.404;2023-04-06T14:43:15;8.07;;;6.80;;
7899;SDS011;3995;50.856;4.404;2023-04-06T14:45:42;8.63;;;7.67;;
7899;SDS011;3995;50.856;4.404;2023-04-06T14:48:09;7.93;;;6.93;;
7899;SDS011;3995;50.856;4.404;2023-04-06T14:50:37;9.40;;;7.77;;
7899;SDS011;3995;50.856;4.404;2023-04-06T14:53:05;9.33;;;8.00;;
7899;SDS011;3995;50.856;4.404;2023-04-06T14:55:32;9.50;;;7.93;;
7899;SDS011;3995;50.856;4.404;2023-04-06T14:58:07;8.97;;;8.07;;
7899;SDS011;3995;50.856;4.404;2023-04-06T15:00:34;8.60;;;7.50;;
7899;SDS011;3995;50.856;4.404;2023-04-06T15:03:03;9.47;;;8.00;;
7899;SDS011;3995;50.856;4.404;2023-04-06T15:05:30;9.70;;;7.80;;
7899;SDS011;3995;50.856;4.404;2023-04-06T15:08:00;8.30;;;7.50;;
7899;SDS011;3995;50.856;4.404;2023-04-06T15:10:27;9.60;;;8.30;;